createdAt,value
2018-09-06T00:00:24.293Z,16.40
2018-09-06T00:02:54.379Z,16.40
2018-09-06T00:05:24.539Z,16.40
2018-09-06T00:07:55.037Z,16.40
2018-09-06T00:10:25.541Z,16.30
2018-09-06T00:12:55.884Z,16.30
2018-09-06T00:15:25.932Z,16.30
2018-09-06T00:17:56.382Z,16.30
2018-09-06T00:20:26.467Z,16.30
2018-09-06T00:22:56.522Z,16.20
2018-09-06T00:25:26.585Z,16.20
2018-09-06T00:27:56.659Z,16.20
2018-09-06T00:30:26.903Z,16.20
2018-09-06T00:32:57.841Z,16.10
2018-09-06T00:35:27.945Z,16.10
2018-09-06T00:37:58.067Z,16.10
2018-09-06T00:40:28.345Z,16.10
2018-09-06T00:42:58.412Z,16.10
2018-09-06T00:45:28.621Z,16.00
2018-09-06T00:47:58.727Z,16.00
2018-09-06T00:50:32.901Z,16.00
2018-09-06T00:53:03.017Z,16.00
2018-09-06T00:55:33.471Z,16.00
2018-09-06T00:58:03.674Z,16.00
2018-09-06T01:00:33.796Z,16.00
2018-09-06T01:03:03.917Z,16.00
2018-09-06T01:05:33.922Z,16.00
2018-09-06T01:08:04.063Z,15.90
2018-09-06T01:10:34.210Z,15.90
2018-09-06T01:13:04.331Z,15.90
2018-09-06T01:15:34.384Z,15.90
2018-09-06T01:18:04.619Z,15.80
2018-09-06T01:20:34.760Z,15.80
2018-09-06T01:23:05.055Z,15.80
2018-09-06T01:25:40.229Z,15.70
2018-09-06T01:28:10.334Z,15.70
2018-09-06T01:30:41.059Z,15.70
2018-09-06T01:33:11.179Z,15.60
2018-09-06T01:35:45.495Z,15.70
2018-09-06T01:38:16.434Z,15.60
2018-09-06T01:40:46.511Z,15.60
2018-09-06T01:43:16.563Z,15.60
2018-09-06T01:45:46.738Z,15.60
2018-09-06T01:48:16.801Z,15.50
2018-09-06T01:50:46.885Z,15.60
2018-09-06T01:53:16.933Z,15.50
2018-09-06T01:55:47.121Z,15.50
2018-09-06T01:58:17.266Z,15.50
2018-09-06T02:00:47.311Z,15.50
2018-09-06T02:03:17.507Z,15.50
2018-09-06T02:05:47.629Z,15.50
2018-09-06T02:08:17.704Z,15.50
2018-09-06T02:10:47.847Z,15.50
2018-09-06T02:13:17.940Z,15.50
2018-09-06T02:15:48.004Z,15.50
2018-09-06T02:18:18.250Z,15.50
2018-09-06T02:20:48.461Z,15.50
2018-09-06T02:23:18.587Z,15.40
2018-09-06T02:25:48.799Z,15.40
2018-09-06T02:28:18.960Z,15.30
2018-09-06T02:30:49.125Z,15.30
2018-09-06T02:33:19.620Z,15.30
2018-09-06T02:35:50.234Z,15.30
2018-09-06T02:38:20.349Z,15.30
2018-09-06T02:40:50.548Z,15.40
2018-09-06T02:43:20.580Z,15.30
2018-09-06T02:45:50.670Z,15.30
2018-09-06T02:48:24.851Z,15.30
2018-09-06T02:51:00.669Z,15.30
2018-09-06T02:53:32.115Z,15.30
2018-09-06T02:56:02.241Z,15.30
2018-09-06T02:58:32.300Z,15.30
2018-09-06T03:01:02.385Z,15.30
2018-09-06T03:03:32.503Z,15.20
2018-09-06T03:06:02.702Z,15.20
2018-09-06T03:08:33.079Z,15.30
2018-09-06T03:11:37.674Z,15.20
2018-09-06T03:14:08.680Z,15.20
2018-09-06T03:16:38.916Z,15.20
2018-09-06T03:19:09.204Z,15.20
2018-09-06T03:21:39.320Z,15.20
2018-09-06T03:24:09.459Z,15.20
2018-09-06T03:26:39.484Z,15.20
2018-09-06T03:29:09.996Z,15.20
2018-09-06T03:31:40.341Z,15.10
2018-09-06T03:34:11.058Z,15.10
2018-09-06T03:36:41.139Z,15.10
2018-09-06T03:39:12.307Z,15.10
2018-09-06T03:41:42.488Z,15.00
2018-09-06T03:44:12.682Z,15.00
2018-09-06T03:46:42.852Z,15.00
2018-09-06T03:49:14.165Z,15.00
2018-09-06T03:51:44.194Z,14.90
2018-09-06T03:54:14.304Z,14.90
2018-09-06T03:56:44.408Z,14.80
2018-09-06T03:59:14.659Z,14.80
2018-09-06T04:01:44.975Z,14.80
2018-09-06T04:04:15.060Z,14.80
2018-09-06T04:06:45.198Z,14.70
2018-09-06T04:09:16.120Z,14.70
2018-09-06T04:11:46.164Z,14.70
2018-09-06T04:14:16.317Z,14.70
2018-09-06T04:16:46.480Z,14.70
2018-09-06T04:19:16.789Z,14.70
2018-09-06T04:21:46.884Z,14.60
2018-09-06T04:24:17.029Z,14.60
2018-09-06T04:26:47.139Z,14.60
2018-09-06T04:29:17.242Z,14.60
2018-09-06T04:31:47.454Z,14.60
2018-09-06T04:34:17.540Z,14.60
2018-09-06T04:36:47.631Z,14.50
2018-09-06T04:39:18.232Z,14.50
2018-09-06T04:41:48.321Z,14.50
2018-09-06T04:44:19.035Z,14.50
2018-09-06T04:46:52.120Z,14.40
2018-09-06T04:49:38.235Z,14.40
2018-09-06T04:52:08.372Z,14.40
2018-09-06T04:54:38.594Z,14.40
2018-09-06T04:57:08.640Z,14.40
2018-09-06T04:59:39.036Z,14.40
2018-09-06T05:02:09.136Z,14.40
2018-09-06T05:04:39.281Z,14.40
2018-09-06T05:07:09.432Z,14.40
2018-09-06T05:09:39.580Z,14.40
2018-09-06T05:12:09.698Z,14.40
2018-09-06T05:14:39.778Z,14.40
2018-09-06T05:17:10.075Z,14.50
2018-09-06T05:19:40.888Z,14.50
2018-09-06T05:22:10.938Z,14.50
2018-09-06T05:24:41.051Z,14.50
2018-09-06T05:27:11.148Z,14.50
2018-09-06T05:29:41.831Z,14.50
2018-09-06T05:32:11.886Z,14.50
2018-09-06T05:34:41.953Z,14.60
2018-09-06T05:37:12.020Z,14.60
2018-09-06T05:39:42.069Z,14.60
2018-09-06T05:42:12.148Z,14.60
2018-09-06T05:44:42.369Z,14.60
2018-09-06T05:47:12.517Z,14.60
2018-09-06T05:49:42.657Z,14.60
2018-09-06T05:52:12.702Z,14.70
2018-09-06T05:57:23.946Z,14.70
2018-09-06T05:59:54.599Z,14.70
2018-09-06T06:02:25.242Z,14.70
2018-09-06T06:04:55.639Z,14.80
2018-09-06T06:07:41.535Z,14.80
2018-09-06T06:10:11.618Z,14.90
2018-09-06T06:12:41.703Z,15.00
2018-09-06T06:15:11.814Z,15.00
2018-09-06T06:17:41.977Z,15.10
2018-09-06T06:20:12.089Z,15.10
2018-09-06T06:22:42.307Z,15.20
2018-09-06T06:25:12.430Z,15.20
2018-09-06T06:27:42.521Z,15.20
2018-09-06T06:30:12.720Z,15.30
2018-09-06T06:32:42.850Z,15.40
2018-09-06T06:35:12.994Z,15.40
2018-09-06T06:37:43.215Z,15.50
2018-09-06T06:40:13.291Z,15.50
2018-09-06T06:42:44.019Z,15.60
2018-09-06T06:45:14.202Z,15.60
2018-09-06T06:47:44.867Z,15.70
2018-09-06T06:50:16.584Z,15.80
2018-09-06T06:52:46.727Z,15.80
2018-09-06T06:55:16.976Z,15.90
2018-09-06T06:57:47.089Z,15.90
2018-09-06T07:00:18.063Z,16.00
2018-09-06T07:02:48.164Z,16.10
2018-09-06T07:05:18.298Z,16.10
2018-09-06T07:07:48.879Z,16.20
2018-09-06T07:10:18.980Z,16.30
2018-09-06T07:12:49.034Z,16.30
2018-09-06T07:15:19.221Z,16.40
2018-09-06T07:17:49.542Z,16.50
2018-09-06T07:20:19.658Z,16.60
2018-09-06T07:22:49.808Z,16.60
2018-09-06T07:25:20.001Z,16.70
2018-09-06T07:27:50.086Z,16.80
2018-09-06T07:30:20.231Z,16.80
2018-09-06T07:32:51.046Z,16.90
2018-09-06T07:35:21.133Z,17.00
2018-09-06T07:37:51.143Z,17.10
2018-09-06T07:40:21.463Z,17.10
2018-09-06T07:42:51.785Z,17.20
2018-09-06T07:45:21.976Z,17.20
2018-09-06T07:47:52.110Z,17.30
2018-09-06T07:50:22.232Z,17.40
2018-09-06T07:52:52.366Z,17.50
2018-09-06T07:55:22.471Z,17.50
2018-09-06T07:57:52.748Z,17.60
2018-09-06T08:00:22.943Z,17.60
2018-09-06T08:02:53.056Z,17.70
2018-09-06T08:05:24.031Z,17.80
2018-09-06T08:07:54.152Z,17.90
2018-09-06T08:10:25.069Z,17.90
2018-09-06T08:12:55.138Z,18.00
2018-09-06T08:15:25.236Z,18.10
2018-09-06T08:17:55.305Z,18.10
2018-09-06T08:20:26.814Z,18.30
2018-09-06T08:22:56.976Z,18.40
2018-09-06T08:25:27.348Z,18.40
2018-09-06T08:27:57.532Z,18.50
2018-09-06T08:30:27.629Z,18.60
2018-09-06T08:32:57.633Z,18.70
2018-09-06T08:35:27.841Z,18.80
2018-09-06T08:37:58.735Z,18.90
2018-09-06T08:40:28.824Z,19.00
2018-09-06T08:42:59.033Z,19.10
2018-09-06T08:45:29.315Z,19.10
2018-09-06T08:47:59.361Z,19.20
2018-09-06T08:50:29.453Z,19.30
2018-09-06T08:52:59.527Z,19.30
2018-09-06T08:55:29.637Z,19.40
2018-09-06T08:57:59.681Z,19.50
2018-09-06T09:00:29.793Z,19.60
2018-09-06T09:02:59.923Z,19.70
2018-09-06T09:05:29.952Z,19.80
2018-09-06T09:08:00.008Z,19.80
2018-09-06T09:10:30.199Z,20.00
2018-09-06T09:13:00.376Z,20.10
2018-09-06T09:15:30.439Z,20.20
2018-09-06T09:18:00.493Z,20.30
2018-09-06T09:20:30.710Z,20.30
2018-09-06T09:23:01.010Z,20.40
2018-09-06T09:25:31.169Z,20.40
2018-09-06T09:28:01.293Z,20.40
2018-09-06T09:30:31.656Z,20.50
2018-09-06T09:33:01.629Z,20.60
2018-09-06T09:35:31.856Z,20.80
2018-09-06T09:38:01.971Z,20.90
2018-09-06T09:40:32.060Z,21.00
2018-09-06T09:43:02.180Z,21.20
2018-09-06T09:45:32.300Z,21.30
2018-09-06T09:48:02.385Z,21.40
2018-09-06T09:53:01.786Z,21.40
2018-09-06T09:55:32.009Z,21.30
2018-09-06T09:58:02.222Z,21.30
2018-09-06T10:00:34.655Z,21.30
2018-09-06T10:03:10.048Z,21.30
2018-09-06T10:05:46.407Z,21.30
2018-09-06T10:08:21.616Z,21.30
2018-09-06T10:10:51.782Z,21.30
2018-09-06T10:13:21.917Z,21.50
2018-09-06T10:15:52.049Z,21.50
2018-09-06T10:18:22.903Z,21.60
2018-09-06T10:20:52.988Z,21.70
2018-09-06T10:23:29.839Z,21.80
2018-09-06T10:26:00.537Z,21.90
2018-09-06T10:28:30.635Z,21.90
2018-09-06T10:31:01.707Z,22.00
2018-09-06T10:33:32.495Z,22.10
2018-09-06T10:36:02.691Z,22.30
2018-09-06T10:38:32.799Z,22.30
2018-09-06T10:41:02.999Z,22.40
2018-09-06T10:43:34.034Z,22.60
2018-09-06T10:46:04.275Z,22.60
2018-09-06T10:48:34.365Z,22.60
2018-09-06T10:51:04.536Z,22.70
2018-09-06T10:53:34.569Z,22.70
2018-09-06T10:56:04.780Z,22.80
2018-09-06T10:58:35.179Z,22.80
2018-09-06T11:01:10.523Z,22.80
2018-09-06T11:03:41.261Z,22.80
2018-09-06T11:06:11.355Z,22.80
2018-09-06T11:08:41.483Z,22.70
2018-09-06T11:11:12.213Z,22.70
2018-09-06T11:13:42.457Z,22.80
2018-09-06T11:16:13.076Z,22.80
2018-09-06T11:18:43.183Z,22.80
2018-09-06T11:21:25.038Z,22.80
2018-09-06T11:24:06.918Z,22.80
2018-09-06T11:26:37.550Z,22.80
2018-09-06T11:29:07.829Z,22.80
2018-09-06T11:31:37.916Z,22.80
2018-09-06T11:34:07.976Z,22.80
2018-09-06T11:36:40.152Z,22.80
2018-09-06T11:39:10.957Z,22.90
2018-09-06T11:41:41.316Z,22.90
2018-09-06T11:44:12.228Z,23.00
2018-09-06T11:46:42.383Z,23.10
2018-09-06T11:49:13.055Z,23.10
2018-09-06T11:51:43.160Z,23.20
2018-09-06T11:54:13.281Z,23.20
2018-09-06T11:56:43.395Z,23.30
2018-09-06T11:59:13.636Z,23.30
2018-09-06T12:01:43.766Z,23.30
2018-09-06T12:04:14.180Z,23.30
2018-09-06T12:06:44.325Z,23.30
2018-09-06T12:09:14.444Z,23.30
2018-09-06T12:11:44.614Z,23.30
2018-09-06T12:14:14.938Z,23.30
2018-09-06T12:16:45.313Z,23.40
2018-09-06T12:19:20.510Z,23.50
2018-09-06T12:21:50.909Z,23.50
2018-09-06T12:24:21.090Z,23.60
2018-09-06T12:26:51.268Z,23.60
2018-09-06T12:29:21.338Z,23.60
2018-09-06T12:31:51.890Z,23.60
2018-09-06T12:34:22.710Z,23.70
2018-09-06T12:36:52.816Z,23.80
2018-09-06T12:39:23.005Z,24.00
2018-09-06T12:41:53.137Z,24.10
2018-09-06T12:44:23.264Z,24.20
2018-09-06T12:46:53.359Z,24.20
2018-09-06T12:49:23.523Z,24.20
2018-09-06T12:51:53.804Z,24.20
2018-09-06T12:54:24.004Z,24.30
2018-09-06T12:56:54.138Z,24.30
2018-09-06T12:59:24.612Z,24.30
2018-09-06T13:01:55.214Z,24.30
2018-09-06T13:04:25.394Z,24.30
2018-09-06T13:06:55.626Z,24.30
2018-09-06T13:09:26.248Z,24.30
2018-09-06T13:11:56.366Z,24.30
2018-09-06T13:14:26.960Z,24.30
2018-09-06T13:16:57.165Z,24.30
2018-09-06T13:19:27.541Z,24.30
2018-09-06T13:21:58.146Z,24.20
2018-09-06T13:24:28.520Z,24.10
2018-09-06T13:26:58.613Z,24.00
2018-09-06T13:29:40.380Z,24.00
2018-09-06T13:32:10.589Z,23.90
2018-09-06T13:34:40.682Z,23.90
2018-09-06T13:37:11.153Z,23.90
2018-09-06T13:39:41.361Z,24.00
2018-09-06T13:42:11.488Z,24.00
2018-09-06T13:44:41.620Z,24.00
2018-09-06T13:47:11.680Z,24.00
2018-09-06T13:49:41.773Z,24.00
2018-09-06T13:52:12.301Z,24.00
2018-09-06T13:54:42.699Z,24.00
2018-09-06T13:57:12.695Z,24.10
2018-09-06T13:59:42.744Z,24.10
2018-09-06T14:02:12.867Z,24.10
2018-09-06T14:04:42.901Z,24.10
2018-09-06T14:07:13.023Z,24.10
2018-09-06T14:09:43.137Z,24.10
2018-09-06T14:12:13.371Z,24.10
2018-09-06T14:14:43.503Z,24.20
2018-09-06T14:17:13.551Z,24.10
2018-09-06T14:19:43.729Z,24.10
2018-09-06T14:22:13.925Z,24.20
2018-09-06T14:24:44.049Z,24.10
2018-09-06T14:27:14.106Z,24.10
2018-09-06T14:29:44.233Z,24.10
2018-09-06T14:32:14.264Z,24.10
2018-09-06T14:34:44.455Z,24.10
2018-09-06T14:37:14.710Z,24.10
2018-09-06T14:39:44.909Z,24.10
2018-09-06T14:42:15.061Z,24.10
2018-09-06T14:44:45.129Z,24.10
2018-09-06T14:47:15.271Z,24.00
2018-09-06T14:49:45.390Z,24.00
2018-09-06T14:52:15.632Z,24.00
2018-09-06T14:54:45.688Z,24.00
2018-09-06T14:57:15.934Z,24.10
2018-09-06T14:59:46.107Z,24.10
2018-09-06T15:02:16.203Z,24.20
2018-09-06T15:04:46.336Z,24.30
2018-09-06T15:07:16.458Z,24.40
2018-09-06T15:09:47.054Z,24.40
2018-09-06T15:12:17.175Z,24.40
2018-09-06T15:14:47.882Z,24.40
2018-09-06T15:17:18.228Z,24.40
2018-09-06T15:19:48.306Z,24.30
2018-09-06T15:22:18.513Z,24.30
2018-09-06T15:24:49.082Z,24.20
2018-09-06T15:27:19.688Z,24.10
2018-09-06T15:29:49.748Z,24.00
2018-09-06T15:32:20.019Z,24.00
2018-09-06T15:34:50.138Z,23.80
2018-09-06T15:37:20.804Z,23.80
2018-09-06T15:39:50.889Z,23.70
2018-09-06T15:42:21.080Z,23.70
2018-09-06T15:44:52.126Z,23.60
2018-09-06T15:47:22.270Z,23.50
2018-09-06T15:49:52.326Z,23.50
2018-09-06T15:52:22.520Z,23.50
2018-09-06T15:54:52.568Z,23.40
2018-09-06T15:57:22.650Z,23.40
2018-09-06T15:59:52.856Z,23.40
2018-09-06T16:02:23.529Z,23.40
2018-09-06T16:04:53.676Z,23.40
2018-09-06T16:07:23.797Z,23.50
2018-09-06T16:09:54.516Z,23.60
2018-09-06T16:12:24.637Z,23.70
2018-09-06T16:14:54.663Z,23.80
2018-09-06T16:17:24.754Z,23.80
2018-09-06T16:19:55.114Z,23.80
2018-09-06T16:22:25.404Z,23.70
2018-09-06T16:24:55.550Z,23.70
2018-09-06T16:27:25.828Z,23.60
2018-09-06T16:29:56.023Z,23.50
2018-09-06T16:32:26.244Z,23.50
2018-09-06T16:34:56.976Z,23.40
2018-09-06T16:37:27.068Z,23.30
2018-09-06T16:39:57.510Z,23.20
2018-09-06T16:42:27.670Z,23.10
2018-09-06T16:44:58.272Z,23.00
2018-09-06T16:47:29.022Z,22.90
2018-09-06T16:49:59.235Z,22.80
2018-09-06T16:52:29.992Z,22.70
2018-09-06T16:55:00.012Z,22.60
2018-09-06T16:57:30.122Z,22.50
2018-09-06T17:00:00.253Z,22.40
2018-09-06T17:02:30.868Z,22.30
2018-09-06T17:05:01.201Z,22.20
2018-09-06T17:07:31.387Z,22.00
2018-09-06T17:10:01.530Z,21.90
2018-09-06T17:12:31.738Z,21.80
2018-09-06T17:15:01.829Z,21.70
2018-09-06T17:17:31.997Z,21.60
2018-09-06T17:20:08.277Z,21.60
2018-09-06T17:22:38.498Z,21.50
2018-09-06T17:25:08.639Z,21.40
2018-09-06T17:27:39.050Z,21.30
2018-09-06T17:30:09.230Z,21.30
2018-09-06T17:32:39.469Z,21.30
2018-09-06T17:35:09.481Z,21.20
2018-09-06T17:37:39.654Z,21.20
2018-09-06T17:40:10.343Z,21.10
2018-09-06T17:42:40.497Z,21.10
2018-09-06T17:45:10.607Z,21.00
2018-09-06T17:47:40.755Z,21.00
2018-09-06T17:50:10.844Z,20.90
2018-09-06T17:52:41.005Z,20.80
2018-09-06T17:55:11.431Z,20.80
2018-09-06T17:57:41.536Z,20.70
2018-09-06T18:00:11.667Z,20.60
2018-09-06T18:02:42.128Z,20.60
2018-09-06T18:05:12.288Z,20.50
2018-09-06T18:07:42.951Z,20.50
2018-09-06T18:10:13.147Z,20.40
2018-09-06T18:12:43.281Z,20.40
2018-09-06T18:15:13.431Z,20.30
2018-09-06T18:17:43.784Z,20.30
2018-09-06T18:20:13.757Z,20.30
2018-09-06T18:22:43.965Z,20.20
2018-09-06T18:25:15.073Z,20.20
2018-09-06T18:27:46.303Z,20.20
2018-09-06T18:30:16.472Z,20.20
2018-09-06T18:32:47.267Z,20.10
2018-09-06T18:35:17.457Z,20.10
2018-09-06T18:37:47.705Z,20.10
2018-09-06T18:40:18.705Z,20.10
2018-09-06T18:42:48.867Z,20.00
2018-09-06T18:45:19.181Z,20.00
2018-09-06T18:47:49.454Z,20.00
2018-09-06T18:50:20.418Z,20.00
2018-09-06T18:52:50.567Z,20.00
2018-09-06T18:55:20.771Z,20.00
2018-09-06T18:57:50.887Z,20.00
2018-09-06T19:00:20.983Z,19.90
2018-09-06T19:02:52.611Z,20.00
2018-09-06T19:05:22.793Z,19.90
2018-09-06T19:07:53.013Z,20.00
2018-09-06T19:10:23.141Z,19.90
2018-09-06T19:12:53.235Z,19.90
2018-09-06T19:15:23.438Z,19.80
2018-09-06T19:17:53.747Z,19.80
2018-09-06T19:20:23.847Z,19.80
2018-09-06T19:22:54.068Z,19.70
2018-09-06T19:25:24.900Z,19.70
2018-09-06T19:27:56.198Z,19.70
2018-09-06T19:30:26.300Z,19.70
2018-09-06T19:32:57.212Z,19.70
2018-09-06T19:35:27.490Z,19.70
2018-09-06T19:37:57.613Z,19.70
2018-09-06T19:40:27.770Z,19.70
2018-09-06T19:42:57.937Z,19.70
2018-09-06T19:45:28.002Z,19.60
2018-09-06T19:47:58.189Z,19.60
2018-09-06T19:50:28.322Z,19.60
2018-09-06T19:52:58.380Z,19.60
2018-09-06T19:55:28.474Z,19.60
2018-09-06T19:57:59.516Z,19.60
2018-09-06T20:00:29.669Z,19.60
2018-09-06T20:02:59.993Z,19.60
2018-09-06T20:05:30.146Z,19.70
2018-09-06T20:08:00.306Z,19.70
2018-09-06T20:10:30.374Z,19.80
2018-09-06T20:13:00.679Z,19.90
2018-09-06T20:15:30.816Z,20.00
2018-09-06T20:18:00.984Z,20.20
2018-09-06T20:20:31.098Z,20.30
2018-09-06T20:23:01.503Z,20.30
2018-09-06T20:25:31.596Z,20.40
2018-09-06T20:28:01.863Z,20.40
2018-09-06T20:30:31.932Z,20.40
2018-09-06T20:33:02.667Z,20.40
2018-09-06T20:35:32.788Z,20.40
2018-09-06T20:38:02.950Z,20.40
2018-09-06T20:40:33.138Z,20.30
2018-09-06T20:43:03.690Z,20.30
2018-09-06T20:45:33.896Z,20.20
2018-09-06T20:48:04.052Z,20.20
2018-09-06T20:50:35.746Z,20.10
2018-09-06T20:53:06.849Z,20.10
2018-09-06T20:55:37.063Z,20.00
2018-09-06T20:58:07.486Z,19.90
2018-09-06T21:00:37.655Z,19.90
2018-09-06T21:03:08.079Z,19.80
2018-09-06T21:05:38.093Z,19.80
2018-09-06T21:08:08.259Z,19.70
2018-09-06T21:10:38.672Z,19.70
2018-09-06T21:13:08.967Z,19.60
2018-09-06T21:15:39.763Z,19.50
2018-09-06T21:18:09.957Z,19.50
2018-09-06T21:20:40.003Z,19.40
2018-09-06T21:23:10.261Z,19.40
2018-09-06T21:25:40.379Z,19.40
2018-09-06T21:28:11.086Z,19.30
2018-09-06T21:30:41.247Z,19.20
2018-09-06T21:33:11.363Z,19.20
2018-09-06T21:35:41.423Z,19.20
2018-09-06T21:38:11.507Z,19.10
2018-09-06T21:40:41.633Z,19.10
2018-09-06T21:43:11.847Z,19.10
2018-09-06T21:45:41.878Z,19.10
2018-09-06T21:48:12.112Z,19.10
2018-09-06T21:50:42.206Z,19.00
2018-09-06T21:53:13.103Z,19.00
2018-09-06T21:55:43.149Z,19.00
2018-09-06T21:58:13.335Z,19.00
2018-09-06T22:00:43.608Z,18.90
2018-09-06T22:03:18.954Z,18.80
2018-09-06T22:05:49.043Z,18.70
2018-09-06T22:08:19.255Z,18.60
2018-09-06T22:10:49.400Z,18.40
2018-09-06T22:13:19.520Z,18.40
2018-09-06T22:15:50.063Z,18.30
2018-09-06T22:18:20.223Z,18.30
2018-09-06T22:20:50.464Z,18.30
2018-09-06T22:23:20.543Z,18.30
2018-09-06T22:25:50.611Z,18.30
2018-09-06T22:28:21.020Z,18.30
2018-09-06T22:30:51.126Z,18.30
2018-09-06T22:33:21.166Z,18.30
2018-09-06T22:35:51.236Z,18.30
2018-09-06T22:38:21.956Z,18.30
2018-09-06T22:40:52.279Z,18.20
2018-09-06T22:43:22.367Z,18.20
2018-09-06T22:45:52.477Z,18.10
2018-09-06T22:48:22.610Z,18.00
2018-09-06T22:50:52.890Z,18.00
2018-09-06T22:53:23.044Z,18.00
2018-09-06T22:55:53.758Z,18.00
2018-09-06T22:58:23.877Z,17.90
2018-09-06T23:00:53.983Z,17.80
2018-09-06T23:03:29.406Z,17.90
2018-09-06T23:06:00.162Z,17.80
2018-09-06T23:08:30.280Z,17.80
2018-09-06T23:11:00.463Z,17.80
2018-09-06T23:13:31.197Z,17.80
2018-09-06T23:16:01.369Z,17.70
2018-09-06T23:18:32.056Z,17.70
2018-09-06T23:21:03.185Z,17.70
2018-09-06T23:23:33.306Z,17.70
2018-09-06T23:26:03.414Z,17.60
2018-09-06T23:28:33.546Z,17.60
2018-09-06T23:31:03.689Z,17.60
2018-09-06T23:33:33.896Z,17.60
2018-09-06T23:36:03.971Z,17.60
2018-09-06T23:38:34.054Z,17.50
2018-09-06T23:41:04.150Z,17.60
2018-09-06T23:43:34.300Z,17.60
2018-09-06T23:46:04.490Z,17.50
2018-09-06T23:48:34.553Z,17.50
2018-09-06T23:51:04.792Z,17.50
2018-09-06T23:53:34.844Z,17.50
2018-09-06T23:56:04.905Z,17.50
2018-09-06T23:58:35.187Z,17.50
